Time;durP1;ratioP1;P1;durP2;ratioP2;P2;SDS_P1;SDS_P2;PMS_P1;PMS_P2;Temp;Humidity;BMP_temperature;BMP_pressure;BME280_temperature;BME280_humidity;BME280_pressure;Samples;Min_cycle;Max_cycle;Signal;HPM_P1;HPM_P2
2023/01/11 00:01:53;;;;;;;28.83;12.10;;;;;;;;;;4928148;29;20477;-61
2023/01/11 00:04:20;;;;;;;29.97;13.17;;;;;;;;;;4933771;29;20458;-61
2023/01/11 00:06:46;;;;;;;30.40;11.87;;;;;;;;;;4933202;29;20539;-62
2023/01/11 00:09:14;;;;;;;28.63;12.03;;;;;;;;;;4933484;29;20469;-61
2023/01/11 00:11:41;;;;;;;28.63;12.10;;;;;;;;;;4933404;29;20843;-61
2023/01/11 00:14:08;;;;;;;24.23;11.77;;;;;;;;;;4933165;29;20561;-61
2023/01/11 00:16:52;;;;;;;26.93;11.87;;;;;;;;;;4933428;29;20517;-61
2023/01/11 00:19:18;;;;;;;22.43;11.30;;;;;;;;;;4932294;29;20446;-62
2023/01/11 00:22:03;;;;;;;23.47;12.00;;;;;;;;;;4933680;29;20505;-61
2023/01/11 00:24:29;;;;;;;23.20;11.67;;;;;;;;;;4933057;29;20462;-61
2023/01/11 00:27:16;;;;;;;25.50;12.00;;;;;;;;;;4932642;29;20229;-62
2023/01/11 00:29:43;;;;;;;25.07;11.37;;;;;;;;;;4932848;29;20431;-62
2023/01/11 00:32:27;;;;;;;21.50;10.80;;;;;;;;;;4932928;29;20908;-62
2023/01/11 00:34:53;;;;;;;22.53;11.10;;;;;;;;;;4932977;29;20430;-61
2023/01/11 00:37:20;;;;;;;19.87;10.77;;;;;;;;;;4933226;29;20438;-62
2023/01/11 00:39:47;;;;;;;18.67;9.70;;;;;;;;;;4931563;29;20438;-61
2023/01/11 00:47:56;;;;;;;21.13;10.60;;;;;;;;;;4932850;29;20799;-61
2023/01/11 00:50:23;;;;;;;19.33;10.80;;;;;;;;;;4932600;29;20419;-61
2023/01/11 00:52:50;;;;;;;23.27;10.67;;;;;;;;;;4932636;29;21308;-61
2023/01/11 00:55:16;;;;;;;18.60;9.93;;;;;;;;;;4925920;29;20876;-62
2023/01/11 00:58:00;;;;;;;23.27;10.57;;;;;;;;;;4914073;29;20423;-61
2023/01/11 01:00:27;;;;;;;26.17;11.60;;;;;;;;;;4915865;29;22228;-61
2023/01/11 01:02:54;;;;;;;20.17;11.27;;;;;;;;;;4932755;29;20502;-61
2023/01/11 01:05:20;;;;;;;21.97;10.53;;;;;;;;;;4932486;29;20478;-61
2023/01/11 01:07:47;;;;;;;19.10;10.27;;;;;;;;;;4932470;29;20434;-61
2023/01/11 01:10:14;;;;;;;19.93;9.53;;;;;;;;;;4932541;29;20435;-61
2023/01/11 01:15:26;;;;;;;19.53;10.37;;;;;;;;;;4932014;29;20454;-62
2023/01/11 01:17:54;;;;;;;18.90;9.53;;;;;;;;;;4931324;29;20497;-61
2023/01/11 01:20:23;;;;;;;22.90;9.97;;;;;;;;;;4932298;29;20430;-61
2023/01/11 01:23:07;;;;;;;18.60;8.50;;;;;;;;;;4932200;29;20450;-62
2023/01/11 01:25:35;;;;;;;22.17;11.10;;;;;;;;;;4932240;29;20537;-61
2023/01/11 01:28:20;;;;;;;21.37;9.33;;;;;;;;;;4932621;29;20454;-61
2023/01/11 01:30:50;;;;;;;22.73;10.30;;;;;;;;;;4932183;29;20438;-61
2023/01/11 01:33:17;;;;;;;24.93;9.07;;;;;;;;;;4932422;29;20482;-61
2023/01/11 01:35:44;;;;;;;31.30;11.27;;;;;;;;;;4930201;29;20435;-61
2023/01/11 01:38:11;;;;;;;24.50;11.03;;;;;;;;;;4913317;29;20435;-61
2023/01/11 01:40:41;;;;;;;29.97;12.67;;;;;;;;;;4913097;29;20576;-61
2023/01/11 02:19:00;;;;;;;20.70;10.93;;;;;;;;;;4916768;29;20403;-62
2023/01/11 02:21:28;;;;;;;23.70;12.00;;;;;;;;;;4916156;29;20447;-61
2023/01/11 02:24:34;;;;;;;23.17;11.17;;;;;;;;;;4926025;29;20513;-61
2023/01/11 02:27:03;;;;;;;26.63;11.97;;;;;;;;;;4857431;29;20489;-61
2023/01/11 02:29:47;;;;;;;26.57;12.73;;;;;;;;;;4857779;29;20466;-61
2023/01/11 02:32:20;;;;;;;25.73;12.23;;;;;;;;;;4905306;29;20444;-62
2023/01/11 02:34:49;;;;;;;26.33;12.40;;;;;;;;;;4917818;29;20449;-61
2023/01/11 02:37:25;;;;;;;24.67;12.30;;;;;;;;;;4934360;29;20451;-61
2023/01/11 02:39:57;;;;;;;26.93;12.67;;;;;;;;;;4935011;29;20442;-61
2023/01/11 02:45:25;;;;;;;25.80;11.97;;;;;;;;;;4883155;29;20566;-62
2023/01/11 02:48:09;;;;;;;25.20;11.33;;;;;;;;;;4933758;29;20436;-61
2023/01/11 02:50:38;;;;;;;21.30;11.03;;;;;;;;;;4934918;29;20435;-61
2023/01/11 02:53:05;;;;;;;23.20;11.03;;;;;;;;;;4934788;29;20506;-61
2023/01/11 02:55:36;;;;;;;24.27;12.07;;;;;;;;;;4934652;29;20497;-61
2023/01/11 02:58:03;;;;;;;25.00;12.00;;;;;;;;;;4933839;29;20450;-62
2023/01/11 03:00:47;;;;;;;21.10;11.40;;;;;;;;;;4932808;29;20776;-61
2023/01/11 03:03:15;;;;;;;25.37;10.57;;;;;;;;;;4917408;29;20493;-61
2023/01/11 03:06:04;;;;;;;20.67;10.07;;;;;;;;;;4915298;29;20502;-61
2023/01/11 03:08:37;;;;;;;21.53;10.07;;;;;;;;;;4914623;29;20479;-61
2023/01/11 03:14:18;;;;;;;20.67;10.30;;;;;;;;;;4915603;29;21093;-61
2023/01/11 03:17:08;;;;;;;22.90;10.00;;;;;;;;;;4915587;29;20420;-61
2023/01/11 03:19:37;;;;;;;20.90;10.03;;;;;;;;;;4915407;29;20514;-61
2023/01/11 03:22:16;;;;;;;23.27;10.60;;;;;;;;;;4898228;29;20546;-61
2023/01/11 03:25:12;;;;;;;22.50;10.23;;;;;;;;;;4915472;29;20450;-61
2023/01/11 03:27:48;;;;;;;23.33;10.67;;;;;;;;;;4902801;29;20935;-61
2023/01/11 03:30:23;;;;;;;25.52;11.80;;;;;;;;;;4915171;29;20530;-61
2023/01/11 03:33:12;;;;;;;22.80;11.13;;;;;;;;;;4914066;29;20168;-62
2023/01/11 03:35:40;;;;;;;22.03;11.17;;;;;;;;;;4913937;29;20859;-62
2023/01/11 03:38:15;;;;;;;23.47;11.40;;;;;;;;;;4897921;29;21002;-62
2023/01/11 03:40:44;;;;;;;22.40;10.50;;;;;;;;;;4913747;29;20441;-62
2023/01/11 03:43:29;;;;;;;28.03;11.67;;;;;;;;;;4914205;29;20432;-62
2023/01/11 03:46:04;;;;;;;21.73;10.57;;;;;;;;;;4914706;29;20463;-62
2023/01/11 03:48:35;;;;;;;26.73;12.43;;;;;;;;;;4898085;29;20791;-62
2023/01/11 03:51:02;;;;;;;23.40;11.33;;;;;;;;;;4913510;29;20446;-62
2023/01/11 03:53:29;;;;;;;22.90;11.37;;;;;;;;;;4913626;29;20440;-62
2023/01/11 03:55:56;;;;;;;21.63;9.97;;;;;;;;;;4913319;29;20447;-62
2023/01/11 03:58:24;;;;;;;26.97;11.53;;;;;;;;;;4913745;29;20454;-62
2023/01/11 04:00:50;;;;;;;22.87;11.70;;;;;;;;;;4918504;29;20438;-62
2023/01/11 04:03:17;;;;;;;22.77;10.57;;;;;;;;;;4916929;29;20431;-62
2023/01/11 04:05:44;;;;;;;23.07;10.40;;;;;;;;;;4933685;29;20534;-62
2023/01/11 04:08:11;;;;;;;20.00;9.90;;;;;;;;;;4916840;29;20490;-62
2023/01/11 04:10:38;;;;;;;20.20;9.60;;;;;;;;;;4933356;29;20434;-62
2023/01/11 04:13:04;;;;;;;21.70;9.53;;;;;;;;;;4933198;29;20450;-62
2023/01/11 04:15:33;;;;;;;19.60;10.40;;;;;;;;;;4916499;29;20462;-62
2023/01/11 04:18:06;;;;;;;20.63;9.70;;;;;;;;;;4932094;29;20437;-62
2023/01/11 04:20:33;;;;;;;18.63;9.00;;;;;;;;;;4933397;29;20441;-62
2023/01/11 04:23:00;;;;;;;18.43;9.87;;;;;;;;;;4933209;29;20435;-62
2023/01/11 04:25:27;;;;;;;17.20;8.73;;;;;;;;;;4933051;29;20508;-62
2023/01/11 04:27:53;;;;;;;23.23;9.83;;;;;;;;;;4932965;29;20481;-62
2023/01/11 04:30:20;;;;;;;19.10;9.50;;;;;;;;;;4933017;29;20846;-62
2023/01/11 04:32:47;;;;;;;21.60;10.23;;;;;;;;;;4932605;29;20443;-62
2023/01/11 04:35:13;;;;;;;18.93;9.53;;;;;;;;;;4931910;29;20454;-62
2023/01/11 04:37:40;;;;;;;19.67;10.23;;;;;;;;;;4932912;29;21010;-62
2023/01/11 04:40:10;;;;;;;19.30;10.00;;;;;;;;;;4933082;29;20474;-62
2023/01/11 04:42:36;;;;;;;21.50;10.60;;;;;;;;;;4931865;29;20458;-62
2023/01/11 04:45:20;;;;;;;23.20;11.47;;;;;;;;;;4933024;29;20902;-61
2023/01/11 04:47:52;;;;;;;21.93;10.30;;;;;;;;;;4932469;29;20415;-62
2023/01/11 04:50:19;;;;;;;21.97;10.07;;;;;;;;;;4932727;29;20443;-62
2023/01/11 04:52:45;;;;;;;17.73;9.47;;;;;;;;;;4929587;29;20504;-62
2023/01/11 04:55:12;;;;;;;15.67;9.10;;;;;;;;;;4933174;29;20466;-62
2023/01/11 04:57:56;;;;;;;21.70;9.07;;;;;;;;;;4925535;29;20434;-62
2023/01/11 05:00:23;;;;;;;20.60;8.97;;;;;;;;;;4931106;29;20482;-62
2023/01/11 05:03:08;;;;;;;18.37;8.87;;;;;;;;;;4913539;29;20831;-62
2023/01/11 05:05:34;;;;;;;15.53;8.10;;;;;;;;;;4913494;29;20556;-61
2023/01/11 05:08:18;;;;;;;16.80;8.37;;;;;;;;;;4913473;29;20432;-61
2023/01/11 05:10:50;;;;;;;18.33;8.73;;;;;;;;;;4913256;29;20496;-62
2023/01/11 05:13:16;;;;;;;18.40;8.43;;;;;;;;;;4913761;29;21019;-62
2023/01/11 05:15:43;;;;;;;16.17;8.00;;;;;;;;;;4913304;29;20486;-62
2023/01/11 05:18:10;;;;;;;16.07;7.63;;;;;;;;;;4913415;29;20491;-61
2023/01/11 05:20:54;;;;;;;17.53;8.00;;;;;;;;;;4916980;28;20445;-62
2023/01/11 05:23:20;;;;;;;16.17;8.23;;;;;;;;;;4933058;29;20439;-63
2023/01/11 05:26:06;;;;;;;14.87;7.67;;;;;;;;;;4924983;29;20557;-63
2023/01/11 05:28:33;;;;;;;16.20;8.03;;;;;;;;;;4910685;29;20450;-63
2023/01/11 05:31:00;;;;;;;13.87;6.37;;;;;;;;;;4932347;29;20437;-65
2023/01/11 05:33:27;;;;;;;15.33;7.30;;;;;;;;;;4939697;29;20967;-62
2023/01/11 05:35:57;;;;;;;13.67;7.23;;;;;;;;;;4936531;29;20443;-62
2023/01/11 05:38:24;;;;;;;16.97;7.10;;;;;;;;;;4932219;29;20490;-63
2023/01/11 05:40:57;;;;;;;15.13;7.63;;;;;;;;;;4937585;29;20438;-63
2023/01/11 05:43:24;;;;;;;15.03;7.10;;;;;;;;;;4939337;29;20449;-63
2023/01/11 05:45:51;;;;;;;15.50;7.20;;;;;;;;;;4930467;29;20985;-63
2023/01/11 05:48:18;;;;;;;14.43;6.23;;;;;;;;;;4936382;29;20438;-62
2023/01/11 05:51:02;;;;;;;13.50;5.83;;;;;;;;;;4946268;29;20454;-62
2023/01/11 05:53:29;;;;;;;12.37;5.93;;;;;;;;;;4916010;29;20446;-62
2023/01/11 05:56:13;;;;;;;12.20;5.83;;;;;;;;;;4932609;29;20953;-62
2023/01/11 05:58:40;;;;;;;17.27;7.40;;;;;;;;;;4932835;29;20435;-62
2023/01/11 06:01:06;;;;;;;14.10;5.23;;;;;;;;;;4925241;29;20554;-64
2023/01/11 06:03:33;;;;;;;13.03;5.40;;;;;;;;;;4926555;29;20465;-63
2023/01/11 06:06:00;;;;;;;16.67;6.73;;;;;;;;;;4927117;29;20474;-62
2023/01/11 06:08:27;;;;;;;13.23;6.80;;;;;;;;;;4928731;29;20791;-63
2023/01/11 06:10:54;;;;;;;13.87;6.47;;;;;;;;;;4927831;29;20446;-63
2023/01/11 06:13:27;;;;;;;16.07;6.33;;;;;;;;;;4910985;29;20441;-63
2023/01/11 06:15:57;;;;;;;14.80;6.90;;;;;;;;;;4929233;29;20541;-61
2023/01/11 06:18:24;;;;;;;14.73;6.80;;;;;;;;;;4926054;29;21248;-62
2023/01/11 06:20:51;;;;;;;16.47;6.97;;;;;;;;;;4926525;29;20481;-61
2023/01/11 06:23:37;;;;;;;9.73;5.20;;;;;;;;;;4912689;29;20436;-63
2023/01/11 06:26:06;;;;;;;14.83;6.70;;;;;;;;;;4921211;29;20481;-62
2023/01/11 06:28:32;;;;;;;10.93;4.17;;;;;;;;;;4930390;29;20442;-61
2023/01/11 06:30:59;;;;;;;9.80;5.53;;;;;;;;;;4927772;29;20514;-64
2023/01/11 06:33:26;;;;;;;12.17;6.23;;;;;;;;;;4909452;29;20489;-62
2023/01/11 06:35:53;;;;;;;10.50;5.33;;;;;;;;;;4927826;29;20447;-62
2023/01/11 06:38:20;;;;;;;11.10;4.23;;;;;;;;;;4913193;29;20447;-62
2023/01/11 06:40:54;;;;;;;10.77;4.50;;;;;;;;;;4931047;29;20446;-62
2023/01/11 06:43:21;;;;;;;4.30;2.43;;;;;;;;;;4931206;29;20450;-62
2023/01/11 06:45:47;;;;;;;10.33;5.10;;;;;;;;;;4913178;29;20461;-62
2023/01/11 06:48:15;;;;;;;10.43;5.00;;;;;;;;;;4935328;28;20458;-63
2023/01/11 06:50:41;;;;;;;10.37;4.43;;;;;;;;;;4911971;29;20437;-62
2023/01/11 06:53:08;;;;;;;7.77;4.23;;;;;;;;;;4930120;29;20438;-61
2023/01/11 06:55:35;;;;;;;11.80;4.70;;;;;;;;;;4930386;29;20806;-62
2023/01/11 06:58:01;;;;;;;7.50;3.77;;;;;;;;;;4933994;29;21467;-63
2023/01/11 07:00:28;;;;;;;13.10;4.93;;;;;;;;;;4914808;29;20513;-63
2023/01/11 07:02:55;;;;;;;9.17;5.03;;;;;;;;;;4933720;29;20501;-62
2023/01/11 07:05:22;;;;;;;6.43;3.30;;;;;;;;;;4930404;29;21192;-63
2023/01/11 07:07:49;;;;;;;9.47;5.40;;;;;;;;;;4912677;29;20466;-63
2023/01/11 07:10:15;;;;;;;13.47;5.17;;;;;;;;;;4931034;29;20442;-63
2023/01/11 07:15:55;;;;;;;6.93;4.20;;;;;;;;;;4926463;29;20442;-61
2023/01/11 07:18:22;;;;;;;12.20;5.80;;;;;;;;;;4930394;29;20454;-61
2023/01/11 07:20:49;;;;;;;9.57;5.17;;;;;;;;;;4930708;29;20430;-62
2023/01/11 07:23:16;;;;;;;7.00;3.60;;;;;;;;;;4939879;29;20442;-64
2023/01/11 07:25:42;;;;;;;8.50;4.13;;;;;;;;;;4944084;29;20552;-63
2023/01/11 07:28:09;;;;;;;4.67;2.73;;;;;;;;;;4933188;29;20831;-63
2023/01/11 07:30:36;;;;;;;10.07;4.73;;;;;;;;;;4912715;29;21081;-64
2023/01/11 07:36:50;;;;;;;10.10;5.93;;;;;;;;;;4931912;29;20465;-66
2023/01/11 07:39:18;;;;;;;11.90;6.03;;;;;;;;;;4933773;29;20446;-63
2023/01/11 07:44:30;;;;;;;11.63;5.40;;;;;;;;;;4933679;29;20471;-64
2023/01/11 07:46:57;;;;;;;8.67;4.40;;;;;;;;;;4933310;29;20454;-65
2023/01/11 07:49:24;;;;;;;10.43;4.90;;;;;;;;;;4933944;29;21015;-62
2023/01/11 07:51:53;;;;;;;10.87;6.70;;;;;;;;;;4932856;29;20447;-62
2023/01/11 07:54:20;;;;;;;5.17;3.10;;;;;;;;;;4933705;29;20459;-63
2023/01/11 07:56:46;;;;;;;15.20;5.50;;;;;;;;;;4933519;29;20426;-62
2023/01/11 07:59:13;;;;;;;7.80;3.03;;;;;;;;;;4916661;29;20954;-63
2023/01/11 08:01:40;;;;;;;6.23;3.03;;;;;;;;;;4929218;29;20454;-64
2023/01/11 08:04:12;;;;;;;6.33;3.23;;;;;;;;;;4930546;29;20442;-65
2023/01/11 08:06:39;;;;;;;11.03;4.70;;;;;;;;;;4928757;29;20485;-63
2023/01/11 08:09:05;;;;;;;6.47;3.57;;;;;;;;;;4928690;28;20441;-64
2023/01/11 08:14:38;;;;;;;9.93;4.13;;;;;;;;;;4942071;29;20442;-63
2023/01/11 08:17:05;;;;;;;9.50;3.93;;;;;;;;;;4929281;29;20454;-62
2023/01/11 08:19:50;;;;;;;9.67;5.17;;;;;;;;;;4928929;29;20935;-63
2023/01/11 08:22:17;;;;;;;6.93;4.50;;;;;;;;;;4933739;29;20938;-63
2023/01/11 08:24:44;;;;;;;10.27;5.10;;;;;;;;;;4927684;29;21013;-63
2023/01/11 08:27:11;;;;;;;8.23;4.47;;;;;;;;;;4927340;29;20562;-63
2023/01/11 08:29:43;;;;;;;8.97;4.87;;;;;;;;;;4925718;29;20434;-65
2023/01/11 08:32:12;;;;;;;6.43;3.67;;;;;;;;;;4930476;29;20451;-63
2023/01/11 08:34:39;;;;;;;5.20;2.93;;;;;;;;;;4929113;28;20270;-64
2023/01/11 08:37:07;;;;;;;6.00;3.83;;;;;;;;;;4928919;29;20198;-63
2023/01/11 08:39:34;;;;;;;7.70;4.30;;;;;;;;;;4928635;28;20439;-64
2023/01/11 08:42:02;;;;;;;9.17;4.57;;;;;;;;;;4933006;29;20450;-63
2023/01/11 08:44:28;;;;;;;8.77;3.90;;;;;;;;;;4931071;29;20198;-64
2023/01/11 08:47:00;;;;;;;8.80;5.00;;;;;;;;;;4935244;29;20481;-63
2023/01/11 08:49:29;;;;;;;9.90;4.77;;;;;;;;;;4942173;28;20185;-64
2023/01/11 08:52:13;;;;;;;7.00;2.27;;;;;;;;;;4932559;29;20182;-63
2023/01/11 08:54:40;;;;;;;8.60;4.30;;;;;;;;;;4941616;29;20457;-64
2023/01/11 08:57:07;;;;;;;4.70;2.57;;;;;;;;;;4932827;29;20446;-63
2023/01/11 08:59:34;;;;;;;4.93;3.50;;;;;;;;;;4927015;29;20191;-62
2023/01/11 09:02:01;;;;;;;6.83;3.23;;;;;;;;;;4931210;29;20206;-66
2023/01/11 09:04:28;;;;;;;10.20;5.17;;;;;;;;;;4911390;29;20562;-62
2023/01/11 09:06:55;;;;;;;8.23;4.17;;;;;;;;;;4928633;29;20210;-63
2023/01/11 09:09:22;;;;;;;7.17;3.67;;;;;;;;;;4942210;29;20449;-63
2023/01/11 09:12:07;;;;;;;8.87;4.50;;;;;;;;;;4933183;28;20778;-61
2023/01/11 09:14:35;;;;;;;10.60;4.60;;;;;;;;;;4919407;29;20654;-62
2023/01/11 09:17:02;;;;;;;6.17;2.73;;;;;;;;;;4933373;29;20454;-62
2023/01/11 09:19:28;;;;;;;7.00;4.60;;;;;;;;;;4936985;28;20198;-62
2023/01/11 09:21:56;;;;;;;6.33;3.50;;;;;;;;;;4934648;29;20449;-64
2023/01/11 09:24:41;;;;;;;6.73;3.00;;;;;;;;;;4935835;28;20175;-61
2023/01/11 09:27:10;;;;;;;4.73;2.80;;;;;;;;;;4932352;29;21032;-64
2023/01/11 09:29:37;;;;;;;8.43;2.97;;;;;;;;;;4936056;29;20442;-60
2023/01/11 09:32:04;;;;;;;5.60;3.03;;;;;;;;;;4933254;29;20442;-63
2023/01/11 09:34:32;;;;;;;7.20;3.97;;;;;;;;;;4921532;29;20486;-61
2023/01/11 09:37:01;;;;;;;5.40;3.60;;;;;;;;;;4929045;29;20225;-62
2023/01/11 09:39:28;;;;;;;8.20;4.57;;;;;;;;;;4909867;29;20217;-62
2023/01/11 09:42:06;;;;;;;6.27;3.87;;;;;;;;;;4927034;28;20443;-62
2023/01/11 09:44:40;;;;;;;8.40;4.23;;;;;;;;;;4919358;29;20514;-63
2023/01/11 09:47:20;;;;;;;6.43;3.50;;;;;;;;;;4915093;29;20250;-62
2023/01/11 09:49:51;;;;;;;9.10;3.87;;;;;;;;;;4927726;29;20871;-63
2023/01/11 09:52:18;;;;;;;5.03;3.20;;;;;;;;;;4927596;29;20261;-62
2023/01/11 09:54:46;;;;;;;10.00;4.63;;;;;;;;;;4935239;29;20226;-62
2023/01/11 09:57:14;;;;;;;6.77;3.20;;;;;;;;;;4916566;29;20265;-62
2023/01/11 09:59:49;;;;;;;4.63;2.67;;;;;;;;;;4911759;29;20281;-63
2023/01/11 10:02:27;;;;;;;4.13;2.00;;;;;;;;;;4931783;29;20258;-61
2023/01/11 10:04:57;;;;;;;7.37;3.30;;;;;;;;;;4931847;29;20202;-63
2023/01/11 10:07:33;;;;;;;6.13;2.27;;;;;;;;;;4932916;29;20234;-65
2023/01/11 10:10:05;;;;;;;4.97;2.20;;;;;;;;;;4911545;29;20690;-63
2023/01/11 10:13:12;;;;;;;6.53;3.23;;;;;;;;;;4933711;29;20532;-61
2023/01/11 10:16:07;;;;;;;4.83;2.40;;;;;;;;;;4933194;29;20199;-63
2023/01/11 10:19:03;;;;;;;6.03;3.27;;;;;;;;;;4929477;29;20234;-62
2023/01/11 10:21:59;;;;;;;6.83;2.97;;;;;;;;;;4916883;29;20605;-63
2023/01/11 10:24:30;;;;;;;5.97;2.70;;;;;;;;;;4929988;29;20206;-62
2023/01/11 10:26:58;;;;;;;8.03;3.33;;;;;;;;;;4930567;29;20761;-62
2023/01/11 10:32:44;;;;;;;9.53;3.73;;;;;;;;;;4922488;29;20313;-62
2023/01/11 10:35:44;;;;;;;4.40;2.93;;;;;;;;;;4915767;29;20234;-63
2023/01/11 10:41:03;;;;;;;8.53;2.20;;;;;;;;;;4913981;29;20210;-62
2023/01/11 10:43:30;;;;;;;5.80;2.57;;;;;;;;;;4920723;29;20550;-62
2023/01/11 10:46:01;;;;;;;5.93;2.90;;;;;;;;;;4917883;29;20214;-63
2023/01/11 10:48:28;;;;;;;7.97;3.80;;;;;;;;;;4930764;29;20328;-62
2023/01/11 10:51:10;;;;;;;8.27;3.83;;;;;;;;;;4938776;29;20198;-63
2023/01/11 10:53:49;;;;;;;6.80;3.23;;;;;;;;;;4930282;29;20203;-63
2023/01/11 10:56:18;;;;;;;7.20;3.67;;;;;;;;;;4933236;29;20234;-62
2023/01/11 10:58:52;;;;;;;6.60;3.07;;;;;;;;;;4932760;29;20226;-62
2023/01/11 11:01:27;;;;;;;6.97;3.37;;;;;;;;;;4932000;29;20926;-64
2023/01/11 11:04:13;;;;;;;8.23;3.80;;;;;;;;;;4931474;29;20261;-62
2023/01/11 11:06:50;;;;;;;6.03;2.23;;;;;;;;;;4937899;29;20211;-63
2023/01/11 11:09:17;;;;;;;7.17;3.97;;;;;;;;;;4934642;29;20277;-63
2023/01/11 11:11:51;;;;;;;8.73;2.87;;;;;;;;;;4933949;28;20213;-65
2023/01/11 11:14:18;;;;;;;8.83;3.97;;;;;;;;;;4918939;29;20233;-63
2023/01/11 11:16:57;;;;;;;8.40;3.80;;;;;;;;;;4938031;29;20783;-63
2023/01/11 11:19:24;;;;;;;10.17;4.93;;;;;;;;;;4933176;29;20248;-63
2023/01/11 11:21:51;;;;;;;11.37;4.60;;;;;;;;;;4920455;29;20245;-66
2023/01/11 11:24:21;;;;;;;9.47;3.70;;;;;;;;;;4939123;29;20279;-63
2023/01/11 11:26:50;;;;;;;8.97;4.47;;;;;;;;;;4909734;29;20326;-64
2023/01/11 11:29:42;;;;;;;6.00;3.50;;;;;;;;;;4913455;29;20198;-65
2023/01/11 11:32:29;;;;;;;7.47;4.13;;;;;;;;;;4920520;29;20294;-64
2023/01/11 11:34:55;;;;;;;7.40;4.20;;;;;;;;;;4903559;29;20233;-63
2023/01/11 11:37:26;;;;;;;13.37;5.03;;;;;;;;;;4921784;29;20195;-63
2023/01/11 11:39:54;;;;;;;9.33;4.67;;;;;;;;;;4914247;29;20234;-62
2023/01/11 11:42:21;;;;;;;7.80;4.30;;;;;;;;;;4920919;29;20215;-64
2023/01/11 11:45:07;;;;;;;9.07;3.87;;;;;;;;;;4915058;29;20203;-65
2023/01/11 11:47:34;;;;;;;6.97;3.73;;;;;;;;;;4918592;29;20258;-66
2023/01/11 11:50:19;;;;;;;11.50;4.90;;;;;;;;;;4917798;29;20202;-62
2023/01/11 11:53:06;;;;;;;11.03;4.63;;;;;;;;;;4919847;29;20205;-63
2023/01/11 11:55:33;;;;;;;8.43;4.03;;;;;;;;;;4915185;29;20211;-63
2023/01/11 11:58:07;;;;;;;12.50;5.10;;;;;;;;;;4915227;29;20452;-63
2023/01/11 12:00:38;;;;;;;10.00;4.30;;;;;;;;;;4920144;29;20210;-62
2023/01/11 12:03:24;;;;;;;9.03;4.13;;;;;;;;;;4912776;29;20195;-62
2023/01/11 12:05:59;;;;;;;9.17;3.40;;;;;;;;;;4914843;29;20216;-63
2023/01/11 12:08:26;;;;;;;8.87;5.00;;;;;;;;;;4916593;29;20258;-63
2023/01/11 12:11:00;;;;;;;7.87;3.80;;;;;;;;;;4917712;29;20615;-62
2023/01/11 12:13:31;;;;;;;8.77;4.37;;;;;;;;;;4914145;29;20675;-63
2023/01/11 12:15:59;;;;;;;9.33;4.43;;;;;;;;;;4914475;29;20250;-63
2023/01/11 12:18:40;;;;;;;7.97;4.50;;;;;;;;;;4912787;29;20196;-64
2023/01/11 12:21:20;;;;;;;8.70;4.57;;;;;;;;;;4903736;29;20707;-63
2023/01/11 12:24:18;;;;;;;10.87;5.17;;;;;;;;;;4914448;29;20502;-63
2023/01/11 12:26:57;;;;;;;9.67;4.30;;;;;;;;;;4926262;29;20828;-63
2023/01/11 12:29:27;;;;;;;12.90;4.67;;;;;;;;;;4933607;29;20531;-63
2023/01/11 12:32:11;;;;;;;9.37;4.40;;;;;;;;;;4932988;29;20202;-63
2023/01/11 12:34:44;;;;;;;7.23;3.57;;;;;;;;;;4932703;29;20210;-66
2023/01/11 12:37:26;;;;;;;7.77;4.00;;;;;;;;;;4932994;29;20199;-62
2023/01/11 12:40:18;;;;;;;8.00;4.03;;;;;;;;;;4937839;29;20425;-63
2023/01/11 12:42:57;;;;;;;10.83;4.07;;;;;;;;;;4932493;29;20554;-62
2023/01/11 12:45:30;;;;;;;3.90;2.97;;;;;;;;;;4928784;29;20457;-62
2023/01/11 12:47:57;;;;;;;7.93;4.67;;;;;;;;;;4936043;29;20575;-64
2023/01/11 12:50:25;;;;;;;9.53;4.70;;;;;;;;;;4938946;29;20662;-64
2023/01/11 12:53:04;;;;;;;8.87;4.70;;;;;;;;;;4936850;29;20276;-64
2023/01/11 12:55:37;;;;;;;7.20;3.60;;;;;;;;;;4925272;29;20202;-64
2023/01/11 12:58:13;;;;;;;6.43;2.83;;;;;;;;;;4927078;29;20598;-64
2023/01/11 13:00:52;;;;;;;10.07;4.97;;;;;;;;;;4932918;28;20757;-64
2023/01/11 13:03:18;;;;;;;7.60;4.00;;;;;;;;;;4929356;29;20195;-64
2023/01/11 13:06:03;;;;;;;7.53;3.57;;;;;;;;;;4936068;29;20187;-65
2023/01/11 13:08:46;;;;;;;8.60;4.03;;;;;;;;;;4918747;29;20300;-63
2023/01/11 13:11:34;;;;;;;9.23;4.37;;;;;;;;;;4935490;29;20205;-63
2023/01/11 13:14:14;;;;;;;10.30;4.57;;;;;;;;;;4939345;28;20202;-63
2023/01/11 13:16:49;;;;;;;10.67;4.13;;;;;;;;;;4920167;29;20220;-64
2023/01/11 13:19:20;;;;;;;12.90;4.80;;;;;;;;;;4930442;29;20433;-64
2023/01/11 13:21:52;;;;;;;9.43;4.53;;;;;;;;;;4925897;29;20199;-65
2023/01/11 13:24:27;;;;;;;7.67;3.80;;;;;;;;;;4913718;29;20434;-63
2023/01/11 13:26:58;;;;;;;7.73;4.07;;;;;;;;;;4912103;29;20474;-65
2023/01/11 13:29:32;;;;;;;10.17;4.80;;;;;;;;;;4925187;29;20187;-64
2023/01/11 13:32:01;;;;;;;12.13;4.83;;;;;;;;;;4914611;29;20474;-64
2023/01/11 13:34:49;;;;;;;6.47;3.20;;;;;;;;;;4929785;29;20190;-65
2023/01/11 13:37:29;;;;;;;6.20;3.50;;;;;;;;;;4929646;29;20675;-65
2023/01/11 13:40:02;;;;;;;6.50;3.40;;;;;;;;;;4916741;29;20444;-64
2023/01/11 13:42:42;;;;;;;11.67;4.50;;;;;;;;;;4930994;29;20437;-63
2023/01/11 13:45:20;;;;;;;10.07;4.30;;;;;;;;;;4930981;28;20221;-64
2023/01/11 13:47:48;;;;;;;8.37;4.50;;;;;;;;;;4913321;29;20481;-62
2023/01/11 13:50:43;;;;;;;5.90;3.40;;;;;;;;;;4906640;29;20509;-63
2023/01/11 13:53:14;;;;;;;9.60;4.50;;;;;;;;;;4916150;29;20445;-65
2023/01/11 13:55:56;;;;;;;6.57;3.87;;;;;;;;;;4935240;29;20194;-62
2023/01/11 13:58:27;;;;;;;9.77;5.10;;;;;;;;;;4934480;29;20198;-64
2023/01/11 14:00:59;;;;;;;7.93;4.90;;;;;;;;;;4933887;29;20195;-65
2023/01/11 14:03:27;;;;;;;11.40;4.83;;;;;;;;;;4915323;29;20199;-64
2023/01/11 14:06:02;;;;;;;7.03;4.23;;;;;;;;;;4937299;28;20202;-65
2023/01/11 14:08:35;;;;;;;5.33;2.80;;;;;;;;;;4915483;29;20488;-61
2023/01/11 14:11:23;;;;;;;10.97;5.17;;;;;;;;;;4935294;29;20206;-62
2023/01/11 14:16:54;;;;;;;6.27;2.97;;;;;;;;;;4943285;29;20202;-66
2023/01/11 14:19:23;;;;;;;9.63;4.87;;;;;;;;;;4932063;29;20194;-64
2023/01/11 14:22:00;;;;;;;12.47;4.70;;;;;;;;;;4935664;29;20677;-62
2023/01/11 14:24:27;;;;;;;8.50;4.13;;;;;;;;;;4929143;29;20198;-64
2023/01/11 14:26:57;;;;;;;11.07;5.00;;;;;;;;;;4937171;29;20326;-63
2023/01/11 14:29:29;;;;;;;12.53;5.27;;;;;;;;;;4943926;29;20213;-62
2023/01/11 14:32:02;;;;;;;8.87;5.03;;;;;;;;;;4913392;29;20221;-63
2023/01/11 14:34:32;;;;;;;7.10;3.60;;;;;;;;;;4932102;29;20194;-63
2023/01/11 14:37:02;;;;;;;9.73;5.30;;;;;;;;;;4941857;28;20218;-63
2023/01/11 14:39:34;;;;;;;11.50;5.23;;;;;;;;;;4936121;29;20191;-63
2023/01/11 14:42:23;;;;;;;9.57;4.67;;;;;;;;;;4934001;29;20442;-68
2023/01/11 14:45:12;;;;;;;10.33;5.13;;;;;;;;;;4921373;29;20535;-64
2023/01/11 14:48:05;;;;;;;4.87;3.03;;;;;;;;;;4933960;29;20234;-63
2023/01/11 14:50:44;;;;;;;11.27;4.77;;;;;;;;;;4907116;29;20541;-63
2023/01/11 14:53:29;;;;;;;12.57;6.00;;;;;;;;;;4931815;29;20178;-63
2023/01/11 14:55:56;;;;;;;12.87;5.97;;;;;;;;;;4931237;29;20282;-63
2023/01/11 14:58:26;;;;;;;5.17;2.80;;;;;;;;;;4938148;29;20556;-63
2023/01/11 15:00:53;;;;;;;6.23;3.40;;;;;;;;;;4934699;29;20547;-62
2023/01/11 15:03:20;;;;;;;9.13;4.80;;;;;;;;;;4940030;29;20205;-62
2023/01/11 15:06:12;;;;;;;13.23;6.40;;;;;;;;;;4932493;29;20190;-63
2023/01/11 15:08:43;;;;;;;8.40;3.97;;;;;;;;;;4935274;29;20473;-65
2023/01/11 15:11:29;;;;;;;8.93;4.60;;;;;;;;;;4935297;29;20191;-63
2023/01/11 15:14:00;;;;;;;12.43;5.03;;;;;;;;;;4934528;29;20261;-62
2023/01/11 15:19:27;;;;;;;5.97;3.00;;;;;;;;;;4933573;29;20187;-62
2023/01/11 15:21:54;;;;;;;10.10;3.80;;;;;;;;;;4921100;29;20242;-62
2023/01/11 15:24:24;;;;;;;12.67;7.17;;;;;;;;;;4914299;29;20270;-62
2023/01/11 15:26:51;;;;;;;10.90;5.33;;;;;;;;;;4915102;29;20712;-62
2023/01/11 15:29:28;;;;;;;13.23;5.70;;;;;;;;;;4915273;29;20482;-62
2023/01/11 15:31:55;;;;;;;11.43;5.80;;;;;;;;;;4915441;29;20191;-62
2023/01/11 15:34:22;;;;;;;10.00;4.40;;;;;;;;;;4915390;29;20253;-62
2023/01/11 15:37:15;;;;;;;12.97;6.30;;;;;;;;;;4932008;29;20195;-62
2023/01/11 15:39:50;;;;;;;11.63;5.00;;;;;;;;;;4931633;29;20214;-64
2023/01/11 15:42:26;;;;;;;12.60;6.20;;;;;;;;;;4930272;29;20281;-62
2023/01/11 15:45:01;;;;;;;10.13;6.03;;;;;;;;;;4933339;29;20191;-62
2023/01/11 15:47:30;;;;;;;8.77;4.37;;;;;;;;;;4933676;29;20282;-62
2023/01/11 15:50:04;;;;;;;10.23;5.47;;;;;;;;;;4933706;29;20199;-62
2023/01/11 15:52:31;;;;;;;11.10;6.37;;;;;;;;;;4934609;29;20289;-62
2023/01/11 15:55:10;;;;;;;9.57;4.80;;;;;;;;;;4934185;29;20710;-64
2023/01/11 15:57:52;;;;;;;10.43;4.77;;;;;;;;;;4933256;29;20195;-62
2023/01/11 16:00:54;;;;;;;10.23;4.57;;;;;;;;;;4930740;29;20215;-62
2023/01/11 16:03:24;;;;;;;10.00;4.97;;;;;;;;;;4910508;29;20202;-62
2023/01/11 16:06:06;;;;;;;9.30;5.30;;;;;;;;;;4933451;29;20198;-62
2023/01/11 16:08:52;;;;;;;12.00;5.73;;;;;;;;;;4932676;29;20645;-62
2023/01/11 16:11:57;;;;;;;9.80;5.27;;;;;;;;;;4933046;29;20709;-61
2023/01/11 16:14:28;;;;;;;11.10;5.60;;;;;;;;;;4926847;29;20236;-64
2023/01/11 16:16:56;;;;;;;10.80;5.37;;;;;;;;;;4932514;29;20254;-62
2023/01/11 16:19:24;;;;;;;12.20;6.47;;;;;;;;;;4933519;29;20220;-62
2023/01/11 16:21:51;;;;;;;11.30;6.37;;;;;;;;;;4933802;29;20218;-62